Flight Track Log - Related Links

Times and Time Zones

All times are in EDT time to prevent confusion due to time zone crossing. See the N779NC flight status page for this flight to view local times or setup timezone preferences in your user account.

Time Position Orientation Groundspeed Altitude Reporting Facility
EDT Latitude Longitude Course Direction KTS MPH feet Rate Location/Type
Wed 10:40:44 AM 39.8842 -84.2119 180° South 158 182 1,700  Level Indianapolis Center
Wed 10:41:51 AM 39.8436 -84.2583 221° Southwest 203 234 3,600 1,581 Climbing Indianapolis Center
Wed 10:42:53 AM 39.8078 -84.3250 235° Southwest 214 246 5,100 1,742 Climbing Indianapolis Center
Wed 10:43:55 AM 39.7653 -84.4017 234° Southwest 248 285 7,200 2,032 Climbing Indianapolis Center
Wed 10:44:00 AM 39.6608 -84.6004 229° Southwest  Level FlightAware Approximate
Wed 10:44:57 AM 39.7228 -84.4814 235° Southwest 262 302 9,300  Level Indianapolis Center
Wed 10:45:00 AM 39.6099 -84.7000 180° South  Level FlightAware Approximate
Wed 10:45:59 AM 39.6783 -84.5594 234° Southwest 266 306 11,400  Level Indianapolis Center
Wed 10:47:00 AM 39.6039 -84.5722 188° South 270 311 13,200 1,512 Climbing Indianapolis Center
Wed 10:48:02 AM 39.5111 -84.5969 192° South 287 330 14,500 1,210 Climbing Indianapolis Center
Wed 10:49:04 AM 39.4189 -84.6186 190° South 322 371 15,700 1,415 Climbing Indianapolis Center
Wed 10:50:05 AM 39.3239 -84.6422 191° South 341 392 17,400 1,902 Climbing Indianapolis Center
Wed 10:51:07 AM 39.2272 -84.6631 189° South 348 400 19,600 1,839 Climbing Indianapolis Center
Wed 10:52:09 AM 39.1353 -84.6756 186° South 332 382 21,200 1,220 Climbing Indianapolis Center
Wed 10:53:10 AM 39.0464 -84.7006 192° South 328 377 22,100 976 Climbing Indianapolis Center
Wed 10:54:12 AM 38.9578 -84.7433 201° Southwest 338 389 23,200 1,065 Climbing Indianapolis Center
Wed 10:55:14 AM 38.8628 -84.7981 204° Southwest 343 395 24,300 927 Climbing Indianapolis Center
Wed 10:56:15 AM 38.7736 -84.8408 201° Southwest 343 395 25,100 732 Climbing Indianapolis Center
Wed 10:57:17 AM 38.6847 -84.8069 163° South 370 426 25,800 726 Climbing Indianapolis Center
Wed 10:58:19 AM 38.6172 -84.6928 127° Southeast 386 444 26,600 585 Climbing Indianapolis Center
Wed 10:59:20 AM 38.5478 -84.5828 129° Southeast 395 455 27,000 390 Climbing Indianapolis Center
Wed 11:00:22 AM 38.4672 -84.4728 133° Southeast 421 484 27,400 484 Climbing Indianapolis Center
Wed 11:01:24 AM 38.3686 -84.3461 135° Southeast 430 495 28,000 293 Climbing Indianapolis Center
Wed 11:02:25 AM 38.2825 -84.2325 134° Southeast 441 507 28,000  Level Indianapolis Center
Wed 11:03:27 AM 38.2019 -84.1147 131° Southeast 443 510 28,000  Level Indianapolis Center
Wed 11:04:29 AM 38.1200 -83.9986 132° Southeast 440 506 28,000  Level Indianapolis Center
Wed 11:05:30 AM 38.0275 -83.8983 139° Southeast 437 503 28,000  Level Indianapolis Center
Wed 11:06:32 AM 37.9325 -83.8006 141° Southeast 439 505 28,000  Level Indianapolis Center
Wed 11:07:34 AM 37.8378 -83.7042 141° Southeast 436 502 28,000  Level Indianapolis Center
Wed 11:08:35 AM 37.7250 -83.5953 143° Southeast 437 503 28,000 244 Level Indianapolis Center
Wed 11:09:37 AM 37.6256 -83.5061 145° Southeast 438 504 28,500 677 Climbing Indianapolis Center
Wed 11:10:39 AM 37.5292 -83.4142 143° Southeast 434 499 29,400 878 Climbing Indianapolis Center
Wed 11:11:40 AM 37.4383 -83.3158 139° Southeast 430 495 30,300 878 Climbing Indianapolis Center
Wed 11:12:42 AM 37.3417 -83.2442 149° Southeast 408 470 31,200 732 Climbing Indianapolis Center
Wed 11:13:43 AM 37.2308 -83.2222 171° South 404 465 31,800 585 Climbing Indianapolis Center
Wed 11:14:45 AM 37.1014 -83.2017 173° South 403 464 32,400 585 Climbing Indianapolis Center
Wed 11:15:46 AM 36.9911 -83.1853 173° South 402 463 33,000 537 Climbing Indianapolis Center
Wed 11:16:48 AM 36.8803 -83.1675 173° South 404 465 33,500 484 Climbing Indianapolis Center
Wed 11:17:50 AM 36.7703 -83.1539 174° South 403 464 34,000 244 Climbing Indianapolis Center
Wed 11:18:51 AM 36.6603 -83.1392 174° South 400 460 34,000  Level Indianapolis Center
Wed 11:19:53 AM 36.5492 -83.1256 174° South 402 463 34,000  Level Indianapolis Center
Wed 11:20:55 AM 36.4192 -83.1161 177° South 401 461 34,000  Level Indianapolis Center
Wed 11:21:42 AM 36.3383 -83.1161 180° South 404 465 34,000  Level Atlanta Center
Wed 11:22:42 AM 36.2300 -83.1122 178° South 404 465 34,000  Level Atlanta Center
Wed 11:23:42 AM 36.1172 -83.1006 175° South 404 465 34,000  Level Atlanta Center
Wed 11:25:42 AM 35.8978 -83.0544 170° South 409 471 34,000  Level Atlanta Center
Wed 11:26:42 AM 35.7853 -83.0531 179° South 409 471 34,000  Level Atlanta Center
Wed 11:27:42 AM 35.6769 -83.0750 189° South 399 459 34,000  Level Atlanta Center
Wed 11:28:42 AM 35.5708 -83.1042 193° South 399 459 34,000 -100 Level Atlanta Center
Wed 11:29:42 AM 35.4625 -83.1361 194° South 399 459 33,800 -850 Descending Atlanta Center
Wed 11:30:42 AM 35.3564 -83.1678 194° South 394 453 32,300 -1,750 Descending Atlanta Center
Wed 11:31:42 AM 35.2481 -83.2019 194° South 401 461 30,300 -1,850 Descending Atlanta Center
Wed 11:32:42 AM 35.1397 -83.2233 189° South 401 461 28,600 -1,700 Descending Atlanta Center
Wed 11:33:42 AM 35.0186 -83.2144 177° South 418 481 26,900 -1,550 Descending Atlanta Center
Wed 11:34:42 AM 34.9039 -83.2333 188° South 425 489 25,500 -1,400 Descending Atlanta Center
Wed 11:35:42 AM 34.7914 -83.2647 193° South 425 489 24,100 -1,400 Descending Atlanta Center
Wed 11:36:42 AM 34.6792 -83.3114 199° South 425 489 22,700 -1,300 Descending Atlanta Center
Wed 11:37:42 AM 34.5856 -83.3981 217° Southwest 406 467 21,500 -1,300 Descending Atlanta Center
Wed 11:38:42 AM 34.5089 -83.4642 215° Southwest 367 422 20,100 -1,750 Descending Atlanta Center
Wed 11:39:42 AM 34.4422 -83.5325 220° Southwest 331 381 18,000 -1,950 Descending Atlanta Center
Wed 11:40:42 AM 34.3694 -83.5908 213° Southwest 317 365 16,200 -1,650 Descending Atlanta Center
Wed 11:41:42 AM 34.3300 -83.6739 240° Southwest 311 358 14,700 -1,150 Descending Atlanta Center
Wed 11:42:42 AM 34.2781 -83.7372 225° Southwest 280 322 13,900 -350 Descending Atlanta Center
Wed 11:43:42 AM 34.2136 -83.7950 217° Southwest 280 322 14,000 50 Climbing Atlanta Center
Wed 11:44:42 AM 34.1678 -83.8606 230° Southwest 287 330 14,000  Level Atlanta Center
Wed 11:45:42 AM 34.1178 -83.9383 232° Southwest 295 339 14,000 -360 Level Atlanta Center
Wed 11:46:22 AM 34.0667 -83.9833 216° Southwest 279 321 13,400 -1,140 Descending Atlanta TRACON
Wed 11:47:22 AM 34.0167 -84.0500 228° Southwest 272 313 12,100 -700 Descending Atlanta TRACON
Wed 11:48:22 AM 33.9500 -84.1167 220° Southwest 278 320 12,000 -50 Descending Atlanta TRACON
Wed 11:49:22 AM 33.9000 -84.1667 220° Southwest 276 318 12,000  Level Atlanta TRACON
Wed 11:50:22 AM 33.8333 -84.2167 212° Southwest 277 319 12,000  Level Atlanta TRACON
Wed 11:51:22 AM 33.7833 -84.2833 228° Southwest 229 264 12,000 -200 Level Atlanta TRACON
Wed 11:52:22 AM 33.7500 -84.3333 231° Southwest 231 266 11,600 -1,200 Descending Atlanta TRACON
Wed 11:53:22 AM 33.7500 -84.4167 270° West 255 293 9,600 -1,800 Descending Atlanta TRACON
Wed 11:54:22 AM 33.7500 -84.5000 270° West 245 282 8,000 -1,476 Descending Atlanta TRACON
Wed 11:55:28 AM 33.7500 -84.5833 270° West 227 261 6,500 -1,429 Descending Atlanta TRACON
Wed 11:56:28 AM 33.7333 -84.6667 256° West 219 252 5,000 -750 Descending Atlanta TRACON
Wed 11:57:28 AM 33.7167 -84.7333 253° West 223 257 5,000  Level Atlanta TRACON
Wed 11:58:28 AM 33.6667 -84.7333 180° South 183 211 5,000 -50 Level Atlanta TRACON
Wed 11:59:28 AM 33.6333 -84.7000 140° Southeast 179 206 4,900 -550 Descending Atlanta TRACON
Wed 12:00:28 PM 33.6333 -84.6333 90° East 186 214 3,900 -950 Descending Atlanta TRACON
Wed 12:01:28 PM 33.6333 -84.5667 90° East 181 208 3,000 -900 Descending Atlanta TRACON

Login

Don't have an account? Register now (free) for customized features, flight alerts, and more!